createdAt,value
2022-11-03T00:02:08.016Z,8.50
2022-11-03T00:04:35.329Z,8.50
2022-11-03T00:07:02.535Z,8.50
2022-11-03T00:09:32.627Z,8.50
2022-11-03T00:11:59.802Z,8.50
2022-11-03T00:14:26.989Z,8.60
2022-11-03T00:16:54.682Z,8.60
2022-11-03T00:19:21.883Z,8.70
2022-11-03T00:21:50.091Z,8.60
2022-11-03T00:24:17.288Z,8.70
2022-11-03T00:26:44.678Z,8.70
2022-11-03T00:29:14.004Z,8.70
2022-11-03T00:31:43.260Z,8.70
2022-11-03T00:34:10.854Z,8.70
2022-11-03T00:36:45.088Z,8.70
2022-11-03T00:39:13.141Z,8.70
2022-11-03T00:41:40.730Z,8.70
2022-11-03T00:44:08.773Z,8.70
2022-11-03T00:46:36.238Z,8.70
2022-11-03T00:49:05.245Z,8.70
2022-11-03T00:51:34.714Z,8.80
2022-11-03T00:54:04.771Z,8.80
2022-11-03T00:56:36.189Z,8.80
2022-11-03T00:59:05.196Z,8.80
2022-11-03T01:01:43.891Z,8.80
2022-11-03T01:04:31.732Z,8.90
2022-11-03T01:07:00.329Z,8.90
2022-11-03T01:09:43.632Z,8.90
2022-11-03T01:12:13.660Z,9.00
2022-11-03T01:14:45.433Z,9.00
2022-11-03T01:17:23.891Z,9.00
2022-11-03T01:19:51.454Z,9.10
2022-11-03T01:22:19.428Z,9.10
2022-11-03T01:24:46.711Z,9.10
2022-11-03T01:27:19.350Z,9.10
2022-11-03T01:29:47.101Z,9.20
2022-11-03T01:32:14.481Z,9.30
2022-11-03T01:34:41.705Z,9.30
2022-11-03T01:37:09.024Z,9.30
2022-11-03T01:39:36.295Z,9.30
2022-11-03T01:42:03.903Z,9.40
2022-11-03T01:44:36.775Z,9.40
2022-11-03T01:47:15.594Z,9.40
2022-11-03T01:49:54.852Z,9.40
2022-11-03T01:52:24.398Z,9.40
2022-11-03T01:55:15.422Z,9.40
2022-11-03T01:57:53.988Z,9.50
2022-11-03T02:00:21.763Z,9.50
2022-11-03T02:02:49.315Z,9.50
2022-11-03T02:05:18.496Z,9.50
2022-11-03T02:08:19.564Z,9.50
2022-11-03T02:10:51.068Z,9.50
2022-11-03T02:13:23.957Z,9.50
2022-11-03T02:15:55.226Z,9.50
2022-11-03T02:18:28.285Z,9.50
2022-11-03T02:21:08.832Z,9.50
2022-11-03T02:23:43.860Z,9.50
2022-11-03T02:26:13.502Z,9.50
2022-11-03T02:28:41.045Z,9.50
2022-11-03T02:31:10.989Z,9.50
2022-11-03T02:33:47.052Z,9.50
2022-11-03T02:36:24.991Z,9.50
2022-11-03T02:39:03.727Z,9.50
2022-11-03T02:41:35.138Z,9.50
2022-11-03T02:44:03.785Z,9.50
2022-11-03T02:46:32.825Z,9.50
2022-11-03T02:49:00.027Z,9.50
2022-11-03T02:51:27.344Z,9.50
2022-11-03T02:54:14.499Z,9.50
2022-11-03T02:56:50.898Z,9.50
2022-11-03T02:59:24.202Z,9.50
2022-11-03T03:02:08.865Z,9.50
2022-11-03T03:04:41.332Z,9.50
2022-11-03T03:07:14.396Z,9.50
2022-11-03T03:09:47.381Z,9.50
2022-11-03T03:12:17.553Z,9.50
2022-11-03T03:14:47.160Z,9.50
2022-11-03T03:17:35.229Z,9.50
2022-11-03T03:20:15.029Z,9.50
2022-11-03T03:22:47.880Z,9.50
2022-11-03T03:25:36.534Z,9.50
2022-11-03T03:28:13.357Z,9.50
2022-11-03T03:30:42.599Z,9.50
2022-11-03T03:33:11.158Z,9.50
2022-11-03T03:35:41.718Z,9.50
2022-11-03T03:38:11.038Z,9.50
2022-11-03T03:40:42.213Z,9.50
2022-11-03T03:43:12.781Z,9.50
2022-11-03T03:45:40.487Z,9.50
2022-11-03T03:48:08.021Z,9.50
2022-11-03T03:50:39.087Z,9.50
2022-11-03T03:53:09.994Z,9.40
2022-11-03T03:55:40.693Z,9.50
2022-11-03T03:58:10.651Z,9.40
2022-11-03T04:00:40.317Z,9.40
2022-11-03T04:03:13.093Z,9.50
2022-11-03T04:05:40.303Z,9.50
2022-11-03T04:08:07.784Z,9.50
2022-11-03T04:10:35.178Z,9.50
2022-11-03T04:13:21.095Z,9.50
2022-11-03T04:16:06.884Z,9.50
2022-11-03T04:18:52.553Z,9.50
2022-11-03T04:21:38.290Z,9.50
2022-11-03T04:24:06.563Z,9.50
2022-11-03T04:26:33.792Z,9.50
2022-11-03T04:29:02.053Z,9.50
2022-11-03T04:31:36.933Z,9.50
2022-11-03T04:34:10.443Z,9.50
2022-11-03T04:36:37.774Z,9.60
2022-11-03T04:39:18.939Z,9.60
2022-11-03T04:41:46.577Z,9.60
2022-11-03T04:44:17.011Z,9.60
2022-11-03T04:46:46.558Z,9.60
2022-11-03T04:49:21.781Z,9.60
2022-11-03T04:51:50.228Z,9.60
2022-11-03T04:54:21.697Z,9.60
2022-11-03T04:56:48.922Z,9.60
2022-11-03T04:59:17.443Z,9.60
2022-11-03T05:01:46.413Z,9.60
2022-11-03T05:04:18.421Z,9.70
2022-11-03T05:06:53.778Z,9.70
2022-11-03T05:09:26.452Z,9.70
2022-11-03T05:11:54.464Z,9.70
2022-11-03T05:14:25.020Z,9.70
2022-11-03T05:16:55.470Z,9.60
2022-11-03T05:19:30.849Z,9.60
2022-11-03T05:22:00.365Z,9.60
2022-11-03T05:24:28.001Z,9.70
2022-11-03T05:26:58.260Z,9.70
2022-11-03T05:29:39.611Z,9.70
2022-11-03T05:32:16.946Z,9.70
2022-11-03T05:34:57.298Z,9.70
2022-11-03T05:37:33.233Z,9.70
2022-11-03T05:40:22.793Z,9.70
2022-11-03T05:43:02.950Z,9.70
2022-11-03T05:45:34.751Z,9.70
2022-11-03T05:48:04.906Z,9.70
2022-11-03T05:50:35.336Z,9.70
2022-11-03T05:53:05.253Z,9.70
2022-11-03T05:55:36.037Z,9.70
2022-11-03T05:58:27.165Z,9.70
2022-11-03T06:00:55.387Z,9.70
2022-11-03T06:03:28.907Z,9.80
2022-11-03T06:05:57.496Z,9.70
2022-11-03T06:08:28.726Z,9.70
2022-11-03T06:10:58.533Z,9.80
2022-11-03T06:13:30.834Z,9.70
2022-11-03T06:16:32.734Z,9.80
2022-11-03T06:19:01.971Z,9.80
2022-11-03T06:21:29.185Z,9.80
2022-11-03T06:23:56.429Z,9.80
2022-11-03T06:26:27.410Z,9.80
2022-11-03T06:28:55.765Z,9.80
2022-11-03T06:31:28.879Z,9.80
2022-11-03T06:33:57.802Z,9.80
2022-11-03T06:36:36.172Z,9.80
2022-11-03T06:39:23.537Z,9.80
2022-11-03T06:41:51.846Z,9.80
2022-11-03T06:44:30.020Z,9.80
2022-11-03T06:47:01.807Z,9.90
2022-11-03T06:49:30.264Z,9.80
2022-11-03T06:51:59.643Z,9.90
2022-11-03T06:54:26.862Z,9.90
2022-11-03T06:56:53.951Z,9.90
2022-11-03T06:59:21.063Z,9.90
2022-11-03T07:01:54.750Z,9.90
2022-11-03T07:04:28.719Z,9.90
2022-11-03T07:07:03.093Z,10.00
2022-11-03T07:09:30.269Z,10.00
2022-11-03T07:12:01.075Z,10.00
2022-11-03T07:14:34.374Z,10.00
2022-11-03T07:17:05.115Z,10.00
2022-11-03T07:19:42.550Z,10.10
2022-11-03T07:22:15.265Z,10.00
2022-11-03T07:24:46.023Z,10.10
2022-11-03T07:27:16.490Z,10.00
2022-11-03T07:29:45.088Z,10.00
2022-11-03T07:32:28.965Z,10.10
2022-11-03T07:35:11.765Z,10.10
2022-11-03T07:37:39.099Z,10.10
2022-11-03T07:40:12.474Z,10.00
2022-11-03T07:42:39.694Z,10.00
2022-11-03T07:45:29.342Z,10.00
2022-11-03T07:47:59.312Z,10.10
2022-11-03T07:50:28.849Z,10.10
2022-11-03T07:52:56.002Z,10.10
2022-11-03T07:55:23.090Z,10.10
2022-11-03T07:57:50.268Z,10.10
2022-11-03T08:00:22.032Z,10.10
2022-11-03T08:02:55.310Z,10.10
2022-11-03T08:05:22.556Z,10.10
2022-11-03T08:07:49.755Z,10.10
2022-11-03T08:10:17.028Z,10.10
2022-11-03T08:12:44.165Z,10.20
2022-11-03T08:15:11.890Z,10.10
2022-11-03T08:17:39.116Z,10.20
2022-11-03T08:20:06.686Z,10.20
2022-11-03T08:22:33.877Z,10.20
2022-11-03T08:25:01.018Z,10.20
2022-11-03T08:27:28.178Z,10.20
2022-11-03T08:29:55.394Z,10.20
2022-11-03T08:32:22.601Z,10.20
2022-11-03T08:34:49.859Z,10.30
2022-11-03T08:37:17.422Z,10.30
2022-11-03T08:39:44.765Z,10.40
2022-11-03T08:42:11.993Z,10.50
2022-11-03T08:44:39.250Z,10.50
2022-11-03T08:47:06.424Z,10.50
2022-11-03T08:49:33.643Z,10.50
2022-11-03T08:52:00.893Z,10.50
2022-11-03T08:54:28.132Z,10.50
2022-11-03T08:56:55.394Z,10.50
2022-11-03T08:59:22.578Z,10.50
2022-11-03T09:01:49.875Z,10.40
2022-11-03T09:04:17.161Z,10.40
2022-11-03T09:06:44.337Z,10.40
2022-11-03T09:11:58.669Z,10.30
2022-11-03T09:14:25.881Z,10.30
2022-11-03T09:16:53.189Z,10.40
2022-11-03T09:19:20.392Z,10.40
2022-11-03T09:21:47.543Z,10.40
2022-11-03T09:24:14.892Z,10.40
2022-11-03T09:26:42.094Z,10.40
2022-11-03T09:29:09.262Z,10.30
2022-11-03T09:31:36.866Z,10.30
2022-11-03T09:34:04.351Z,10.30
2022-11-03T09:36:31.596Z,10.30
2022-11-03T09:38:58.832Z,10.30
2022-11-03T09:41:29.153Z,10.30
2022-11-03T09:44:12.790Z,10.30
2022-11-03T09:46:40.376Z,10.30
2022-11-03T09:49:07.663Z,10.30
2022-11-03T09:51:36.901Z,10.30
2022-11-03T09:54:05.534Z,10.30
2022-11-03T09:56:37.251Z,10.30
2022-11-03T09:59:24.895Z,10.30
2022-11-03T10:01:53.817Z,10.30
2022-11-03T10:04:28.286Z,10.30
2022-11-03T10:06:59.312Z,10.30
2022-11-03T10:09:29.139Z,10.30
2022-11-03T10:11:56.334Z,10.30
2022-11-03T10:14:24.470Z,10.30
2022-11-03T10:17:02.431Z,10.30
2022-11-03T10:19:32.216Z,10.40
2022-11-03T10:21:59.485Z,10.40
2022-11-03T10:24:26.624Z,10.30
2022-11-03T10:26:57.539Z,10.40
2022-11-03T10:29:26.868Z,10.30
2022-11-03T10:31:56.366Z,10.30
2022-11-03T10:34:24.651Z,10.30
2022-11-03T10:37:26.749Z,10.30
2022-11-03T10:39:55.978Z,10.30
2022-11-03T10:42:34.924Z,10.30
2022-11-03T10:45:22.021Z,10.30
2022-11-03T10:48:04.988Z,10.30
2022-11-03T10:50:32.133Z,10.30
2022-11-03T10:52:59.502Z,10.40
2022-11-03T10:55:27.975Z,10.40
2022-11-03T10:57:56.794Z,10.40
2022-11-03T11:00:24.596Z,10.40
2022-11-03T11:02:59.414Z,10.40
2022-11-03T11:05:27.010Z,10.40
2022-11-03T11:07:55.692Z,10.40
2022-11-03T11:10:25.397Z,10.50
2022-11-03T11:13:26.183Z,10.50
2022-11-03T11:15:54.706Z,10.50
2022-11-03T11:18:34.193Z,10.40
2022-11-03T11:21:22.262Z,10.40
2022-11-03T11:23:52.744Z,10.50
2022-11-03T11:26:26.450Z,10.50
2022-11-03T11:29:08.644Z,10.50
2022-11-03T11:31:36.962Z,10.50
2022-11-03T11:34:10.172Z,10.50
2022-11-03T11:36:39.726Z,10.40
2022-11-03T11:39:31.277Z,10.40
2022-11-03T11:42:18.979Z,10.40
2022-11-03T11:44:46.825Z,10.40
2022-11-03T11:47:26.155Z,10.30
2022-11-03T11:50:11.799Z,10.30
2022-11-03T11:52:46.312Z,10.20
2022-11-03T11:55:25.642Z,10.20
2022-11-03T11:57:54.064Z,10.20
2022-11-03T12:00:27.222Z,10.20
2022-11-03T12:02:55.117Z,10.10
2022-11-03T12:05:24.112Z,10.10
2022-11-03T12:07:51.391Z,10.10
2022-11-03T12:10:19.759Z,10.00
2022-11-03T12:12:47.028Z,10.00
2022-11-03T12:15:50.034Z,10.00
2022-11-03T12:18:32.861Z,10.00
2022-11-03T12:21:33.739Z,9.90
2022-11-03T12:24:01.010Z,9.90
2022-11-03T12:26:28.130Z,9.90
2022-11-03T12:28:55.627Z,9.80
2022-11-03T12:31:22.854Z,9.80
2022-11-03T12:33:50.009Z,9.80
2022-11-03T12:36:17.793Z,9.80
2022-11-03T12:38:44.945Z,9.80
2022-11-03T12:41:25.604Z,9.80
2022-11-03T12:43:54.164Z,9.80
2022-11-03T12:46:22.627Z,9.80
2022-11-03T12:48:50.338Z,9.70
2022-11-03T12:51:22.470Z,9.70
2022-11-03T12:53:50.348Z,9.80
2022-11-03T12:56:18.955Z,9.80
2022-11-03T12:58:46.301Z,9.80
2022-11-03T13:01:13.716Z,9.80
2022-11-03T13:03:40.954Z,9.80
2022-11-03T13:06:10.424Z,9.70
2022-11-03T13:08:38.264Z,9.80
2022-11-03T13:11:25.971Z,9.70
2022-11-03T13:13:53.777Z,9.70
2022-11-03T13:16:21.479Z,9.70
2022-11-03T13:18:48.724Z,9.70
2022-11-03T13:21:15.859Z,9.70
2022-11-03T13:23:43.131Z,9.70
2022-11-03T13:26:10.604Z,9.70
2022-11-03T13:28:37.789Z,9.70
2022-11-03T13:31:05.086Z,9.70
2022-11-03T13:33:32.300Z,9.70
2022-11-03T13:35:59.636Z,9.60
2022-11-03T13:38:26.892Z,9.60
2022-11-03T13:40:56.910Z,9.60
2022-11-03T13:43:25.259Z,9.60
2022-11-03T13:45:53.223Z,9.60
2022-11-03T13:51:10.777Z,9.60
2022-11-03T13:56:26.398Z,9.60
2022-11-03T14:01:41.928Z,9.50
2022-11-03T14:06:57.093Z,9.50
2022-11-03T14:09:25.009Z,9.50
2022-11-03T14:12:10.655Z,9.50
2022-11-03T14:14:37.829Z,9.50
2022-11-03T14:17:04.919Z,9.50
2022-11-03T14:19:38.153Z,9.50
2022-11-03T14:22:07.062Z,9.50
2022-11-03T14:24:34.637Z,9.50
2022-11-03T14:27:01.820Z,9.50
2022-11-03T14:29:28.994Z,9.50
2022-11-03T14:31:56.193Z,9.50
2022-11-03T14:34:23.299Z,9.50
2022-11-03T14:36:50.501Z,9.40
2022-11-03T14:39:17.785Z,9.40
2022-11-03T14:42:03.472Z,9.40
2022-11-03T14:44:38.727Z,9.40
2022-11-03T14:47:09.155Z,9.40
2022-11-03T14:49:36.556Z,9.40
2022-11-03T14:52:05.368Z,9.30
2022-11-03T14:54:32.659Z,9.30
2022-11-03T14:57:00.357Z,9.30
2022-11-03T14:59:28.003Z,9.30
2022-11-03T15:01:55.581Z,9.30
2022-11-03T15:04:23.093Z,9.20
2022-11-03T15:06:50.756Z,9.20
2022-11-03T15:09:18.351Z,9.10
2022-11-03T15:11:46.579Z,9.10
2022-11-03T15:14:13.964Z,9.10
2022-11-03T15:16:41.323Z,9.00
2022-11-03T15:19:08.936Z,9.10
2022-11-03T15:21:36.639Z,9.00
2022-11-03T15:26:51.129Z,9.00
2022-11-03T15:29:18.363Z,9.00
2022-11-03T15:31:48.198Z,9.00
2022-11-03T15:34:16.103Z,9.00
2022-11-03T15:36:43.187Z,8.90
2022-11-03T15:39:10.425Z,8.90
2022-11-03T15:41:37.968Z,8.90
2022-11-03T15:44:05.089Z,8.90
2022-11-03T15:46:32.295Z,8.90
2022-11-03T15:49:00.767Z,8.90
2022-11-03T15:51:27.922Z,8.90
2022-11-03T15:53:58.456Z,8.80
2022-11-03T15:56:27.639Z,8.90
2022-11-03T15:58:55.048Z,8.90
2022-11-03T16:01:22.580Z,8.90
2022-11-03T16:03:49.765Z,8.80
2022-11-03T16:06:16.899Z,8.90
2022-11-03T16:08:43.992Z,8.80
2022-11-03T16:11:11.081Z,8.80
2022-11-03T16:13:38.312Z,8.80
2022-11-03T16:16:05.783Z,8.80
2022-11-03T16:18:33.029Z,8.80
2022-11-03T16:21:00.182Z,8.80
2022-11-03T16:23:27.315Z,8.80
2022-11-03T16:25:54.545Z,8.70
2022-11-03T16:28:21.791Z,8.70
2022-11-03T16:30:54.061Z,8.70
2022-11-03T16:33:21.851Z,8.70
2022-11-03T16:35:49.092Z,8.70
2022-11-03T16:38:16.389Z,8.70
2022-11-03T16:40:43.916Z,8.70
2022-11-03T16:43:11.371Z,8.70
2022-11-03T16:45:38.725Z,8.70
2022-11-03T16:48:07.353Z,8.70
2022-11-03T16:50:35.587Z,8.70
2022-11-03T16:53:03.631Z,8.70
2022-11-03T16:55:30.818Z,8.70
2022-11-03T16:57:57.943Z,8.70
2022-11-03T17:00:25.290Z,8.70
2022-11-03T17:02:52.577Z,8.70
2022-11-03T17:05:21.290Z,8.70
2022-11-03T17:07:53.534Z,8.60
2022-11-03T17:10:21.621Z,8.70
2022-11-03T17:12:48.948Z,8.60
2022-11-03T17:15:17.439Z,8.60
2022-11-03T17:17:45.094Z,8.60
2022-11-03T17:20:12.958Z,8.60
2022-11-03T17:22:40.460Z,8.60
2022-11-03T17:25:12.140Z,8.60
2022-11-03T17:27:46.280Z,8.60
2022-11-03T17:30:21.929Z,8.50
2022-11-03T17:32:51.068Z,8.50
2022-11-03T17:35:23.327Z,8.50
2022-11-03T17:37:51.940Z,8.50
2022-11-03T17:40:25.353Z,8.50
2022-11-03T17:42:53.388Z,8.50
2022-11-03T17:45:23.128Z,8.50
2022-11-03T17:47:50.452Z,8.50
2022-11-03T17:50:20.536Z,8.50
2022-11-03T17:52:49.799Z,8.50
2022-11-03T17:55:18.359Z,8.50
2022-11-03T17:57:46.215Z,8.50
2022-11-03T18:00:20.833Z,8.50
2022-11-03T18:02:50.841Z,8.50
2022-11-03T18:05:31.848Z,8.50
2022-11-03T18:08:01.406Z,8.50
2022-11-03T18:10:37.847Z,8.50
2022-11-03T18:13:33.058Z,8.40
2022-11-03T18:16:11.074Z,8.50
2022-11-03T18:18:42.033Z,8.50
2022-11-03T18:21:23.789Z,8.50
2022-11-03T18:23:51.213Z,8.50
2022-11-03T18:26:21.540Z,8.50
2022-11-03T18:28:50.493Z,8.50
2022-11-03T18:31:42.225Z,8.50
2022-11-03T18:34:16.083Z,8.50
2022-11-03T18:36:44.366Z,8.50
2022-11-03T18:39:20.271Z,8.50
2022-11-03T18:41:47.433Z,8.50
2022-11-03T18:44:25.125Z,8.50
2022-11-03T18:46:53.303Z,8.50
2022-11-03T18:49:23.761Z,8.50
2022-11-03T18:52:03.341Z,8.50
2022-11-03T18:54:32.960Z,8.50
2022-11-03T18:57:00.811Z,8.50
2022-11-03T18:59:37.837Z,8.50
2022-11-03T19:02:28.598Z,8.50
2022-11-03T19:04:55.754Z,8.50
2022-11-03T19:07:29.854Z,8.50
2022-11-03T19:09:57.231Z,8.50
2022-11-03T19:12:24.654Z,8.50
2022-11-03T19:14:52.249Z,8.50
2022-11-03T19:17:23.967Z,8.50
2022-11-03T19:19:53.145Z,8.50
2022-11-03T19:22:22.502Z,8.50
2022-11-03T19:24:49.929Z,8.50
2022-11-03T19:27:27.012Z,8.50
2022-11-03T19:29:56.117Z,8.50
2022-11-03T19:32:26.731Z,8.50
2022-11-03T19:35:21.075Z,8.50
2022-11-03T19:38:14.029Z,8.50
2022-11-03T19:41:00.533Z,8.50
2022-11-03T19:43:33.346Z,8.40
2022-11-03T19:46:01.836Z,8.50
2022-11-03T19:48:32.301Z,8.50
2022-11-03T19:50:59.509Z,8.40
2022-11-03T19:53:29.406Z,8.40
2022-11-03T19:55:57.031Z,8.40
2022-11-03T19:58:27.251Z,8.40
2022-11-03T20:00:55.496Z,8.50
2022-11-03T20:03:23.390Z,8.40
2022-11-03T20:05:56.956Z,8.40
2022-11-03T20:08:27.355Z,8.40
2022-11-03T20:10:54.531Z,8.40
2022-11-03T20:13:24.512Z,8.40
2022-11-03T20:15:57.394Z,8.40
2022-11-03T20:18:27.636Z,8.40
2022-11-03T20:20:54.896Z,8.40
2022-11-03T20:23:27.355Z,8.40
2022-11-03T20:25:55.411Z,8.40
2022-11-03T20:28:25.826Z,8.40
2022-11-03T20:30:53.801Z,8.40
2022-11-03T20:33:22.861Z,8.40
2022-11-03T20:35:52.231Z,8.30
2022-11-03T20:38:20.735Z,8.30
2022-11-03T20:40:51.499Z,8.30
2022-11-03T20:43:39.084Z,8.30
2022-11-03T20:46:27.198Z,8.20
2022-11-03T20:48:57.971Z,8.20
2022-11-03T20:51:28.080Z,8.20
2022-11-03T20:53:56.045Z,8.10
2022-11-03T20:56:25.855Z,8.10
2022-11-03T20:58:53.715Z,8.10
2022-11-03T21:01:27.836Z,8.00
2022-11-03T21:03:59.981Z,8.00
2022-11-03T21:06:30.032Z,8.00
2022-11-03T21:08:57.581Z,8.00
2022-11-03T21:11:28.198Z,8.00
2022-11-03T21:13:57.890Z,7.90
2022-11-03T21:16:45.481Z,7.90
2022-11-03T21:19:35.330Z,7.90
2022-11-03T21:22:02.555Z,7.90
2022-11-03T21:24:29.701Z,7.90
2022-11-03T21:26:56.877Z,7.90
2022-11-03T21:29:58.366Z,7.80
2022-11-03T21:32:16.391Z,7.80
2022-11-03T21:34:44.441Z,7.80
2022-11-03T21:37:16.180Z,7.80
2022-11-03T21:39:46.283Z,7.70
2022-11-03T21:42:34.452Z,7.70
2022-11-03T21:45:01.684Z,7.70
2022-11-03T21:47:28.962Z,7.70
2022-11-03T21:49:56.131Z,7.60
2022-11-03T21:52:36.162Z,7.60
2022-11-03T21:55:05.189Z,7.60
2022-11-03T21:57:32.683Z,7.60
2022-11-03T21:59:59.793Z,7.60
2022-11-03T22:02:30.230Z,7.60
2022-11-03T22:04:58.150Z,7.60
2022-11-03T22:07:25.583Z,7.60
2022-11-03T22:09:52.721Z,7.70
2022-11-03T22:12:19.880Z,7.70
2022-11-03T22:15:05.653Z,7.70
2022-11-03T22:17:33.112Z,7.70
2022-11-03T22:20:18.923Z,7.80
2022-11-03T22:23:04.736Z,7.70
2022-11-03T22:25:50.459Z,7.80
2022-11-03T22:28:17.952Z,7.70
2022-11-03T22:31:03.561Z,7.70
2022-11-03T22:33:30.691Z,7.80
2022-11-03T22:36:21.489Z,7.80
2022-11-03T22:39:07.558Z,7.70
2022-11-03T22:41:53.779Z,7.70
2022-11-03T22:44:39.709Z,7.70
2022-11-03T22:47:08.526Z,7.70
2022-11-03T22:49:36.543Z,7.70
2022-11-03T22:52:04.428Z,7.70
2022-11-03T22:54:31.592Z,7.70
2022-11-03T22:56:58.813Z,7.70
2022-11-03T22:59:26.000Z,7.70
2022-11-03T23:01:54.236Z,7.70
2022-11-03T23:04:21.588Z,7.80
2022-11-03T23:06:48.786Z,7.70
2022-11-03T23:09:15.975Z,7.70
2022-11-03T23:11:43.121Z,7.80
2022-11-03T23:14:11.944Z,7.80
2022-11-03T23:16:44.364Z,7.80
2022-11-03T23:19:32.584Z,7.80
2022-11-03T23:22:00.391Z,7.80
2022-11-03T23:24:46.325Z,7.80
2022-11-03T23:27:14.137Z,7.80
2022-11-03T23:29:41.545Z,7.80
2022-11-03T23:32:08.823Z,7.80
2022-11-03T23:34:36.218Z,7.80
2022-11-03T23:37:03.650Z,7.80
2022-11-03T23:39:30.835Z,7.80
2022-11-03T23:41:58.157Z,7.90
2022-11-03T23:44:25.475Z,7.90
2022-11-03T23:47:11.397Z,7.90
2022-11-03T23:49:38.631Z,7.90
2022-11-03T23:52:05.836Z,7.90
2022-11-03T23:54:33.106Z,7.90
2022-11-03T23:57:18.831Z,7.90
2022-11-03T23:59:46.046Z,7.90
